createdAt,value
2018-06-27T03:37:37.853Z,1001.7
2018-06-27T03:41:59.184Z,1001.7
2018-06-27T03:42:20.642Z,1001.8
2018-06-27T03:43:53.068Z,1001.8
2018-06-27T03:44:14.342Z,1001.8
2018-06-27T03:45:17.229Z,1001.8
2018-06-27T03:45:38.273Z,1001.8
2018-06-27T04:04:00.097Z,1001.9
2018-06-27T04:09:55.949Z,1001.9
2018-06-27T04:22:01.820Z,1002.1
2018-06-27T04:28:49.734Z,1002.1
2018-06-27T04:36:46.909Z,1002.1
2018-06-27T05:49:49.725Z,1002.4
2018-06-27T05:50:12.247Z,1002.4
2018-06-27T05:50:32.843Z,1002.4
2018-06-27T05:51:34.875Z,1002.4
2018-06-27T05:51:56.805Z,1002.4
2018-06-27T05:52:18.248Z,1002.4
2018-06-27T05:52:38.867Z,1002.4
2018-06-27T05:53:09.501Z,1002.4
2018-06-27T05:53:32.140Z,1002.4
2018-06-27T05:54:50.991Z,1002.4
2018-06-27T05:55:24.836Z,1002.4
2018-06-27T05:56:02.639Z,1002.5
2018-06-27T05:56:43.008Z,1002.4
2018-06-27T05:57:10.346Z,1002.4
2018-06-27T05:57:30.816Z,1002.4
2018-06-27T05:57:51.244Z,1002.5
2018-06-27T05:58:11.933Z,1002.5
2018-06-27T05:58:33.359Z,1002.5
2018-06-27T05:58:54.084Z,1002.5
2018-06-27T05:59:14.827Z,1002.5
2018-06-27T05:59:35.327Z,1002.5
2018-06-27T05:59:56.552Z,1002.5
2018-06-27T06:00:17.541Z,1002.5
2018-06-27T06:00:38.371Z,1002.5
2018-06-27T06:00:59.243Z,1002.4
2018-06-27T06:01:19.966Z,1002.5
2018-06-27T06:01:40.655Z,1002.5
2018-06-27T06:02:01.205Z,1002.5
2018-06-27T06:02:21.873Z,1002.5
2018-06-27T06:02:42.286Z,1002.5
2018-06-27T06:03:02.791Z,1002.6
2018-06-27T06:03:23.314Z,1002.6
2018-06-27T06:03:43.872Z,1002.6
2018-06-27T06:04:04.961Z,1002.6
2018-06-27T06:04:25.810Z,1002.6
2018-06-27T06:04:46.757Z,1002.6
2018-06-27T06:05:07.382Z,1002.6
2018-06-27T06:05:28.441Z,1002.6
2018-06-27T06:05:49.101Z,1002.6
2018-06-27T06:06:09.975Z,1002.6
2018-06-27T06:06:30.763Z,1002.6
2018-06-27T06:06:51.308Z,1002.6
2018-06-27T06:07:11.820Z,1002.6
2018-06-27T06:07:32.665Z,1002.6
2018-06-27T06:07:53.593Z,1002.6
2018-06-27T06:08:14.553Z,1002.6
2018-06-27T06:08:35.429Z,1002.6
2018-06-27T06:08:56.436Z,1002.6
2018-06-27T06:09:17.383Z,1002.6
2018-06-27T06:09:38.058Z,1002.6
2018-06-27T06:09:58.854Z,1002.6
2018-06-27T06:10:19.607Z,1002.6
2018-06-27T06:10:40.460Z,1002.6
2018-06-27T06:11:01.381Z,1002.5
2018-06-27T06:11:22.793Z,1002.6
2018-06-27T06:11:43.864Z,1002.6
2018-06-27T06:12:04.666Z,1002.6
2018-06-27T06:12:25.432Z,1002.6
2018-06-27T06:12:46.199Z,1002.6
2018-06-27T06:13:06.990Z,1002.6
2018-06-27T06:13:27.905Z,1002.6
2018-06-27T06:13:48.646Z,1002.6
2018-06-27T06:14:09.443Z,1002.6
2018-06-27T06:14:30.149Z,1002.6
2018-06-27T06:14:52.011Z,1002.6
2018-06-27T06:15:12.785Z,1002.6
2018-06-27T06:15:33.400Z,1002.6
2018-06-27T06:15:54.308Z,1002.6
2018-06-27T06:16:15.326Z,1002.6
2018-06-27T06:16:35.973Z,1002.6
2018-06-27T06:16:56.651Z,1002.6
2018-06-27T06:17:17.363Z,1002.6
2018-06-27T06:17:38.427Z,1002.6
2018-06-27T06:17:59.170Z,1002.6
2018-06-27T06:18:20.075Z,1002.6
2018-06-27T06:18:41.118Z,1002.6
2018-06-27T06:19:02.075Z,1002.6
2018-06-27T06:19:23.007Z,1002.6
2018-06-27T06:19:44.117Z,1002.6
2018-06-27T06:20:04.924Z,1002.6
2018-06-27T06:20:25.728Z,1002.6
2018-06-27T06:20:46.565Z,1002.6
2018-06-27T06:21:07.311Z,1002.6
2018-06-27T06:21:28.386Z,1002.6
2018-06-27T06:21:49.485Z,1002.6
2018-06-27T06:22:10.623Z,1002.6
2018-06-27T06:22:31.450Z,1002.6
2018-06-27T06:22:52.108Z,1002.6
2018-06-27T06:23:13.023Z,1002.6
2018-06-27T06:23:34.183Z,1002.5
2018-06-27T06:23:55.061Z,1002.6
2018-06-27T06:24:15.751Z,1002.6
2018-06-27T06:24:36.609Z,1002.6
2018-06-27T06:24:57.582Z,1002.6
2018-06-27T06:25:18.721Z,1002.6
2018-06-27T06:25:39.998Z,1002.6
2018-06-27T06:26:00.879Z,1002.6
2018-06-27T06:26:21.766Z,1002.6
2018-06-27T06:26:43.440Z,1002.6
2018-06-27T06:27:04.201Z,1002.6
2018-06-27T06:27:24.863Z,1002.6
2018-06-27T06:27:45.953Z,1002.6
2018-06-27T06:28:06.794Z,1002.6
2018-06-27T06:28:27.542Z,1002.6
2018-06-27T06:28:48.211Z,1002.6
2018-06-27T06:29:09.044Z,1002.6
2018-06-27T06:29:29.609Z,1002.6
2018-06-27T06:29:50.019Z,1002.6
2018-06-27T06:30:10.680Z,1002.6
2018-06-27T06:30:31.674Z,1002.6
2018-06-27T06:30:52.255Z,1002.6
2018-06-27T06:31:13.082Z,1002.6
2018-06-27T06:31:33.805Z,1002.6
2018-06-27T06:31:54.399Z,1002.6
2018-06-27T06:32:15.526Z,1002.6
2018-06-27T06:32:36.747Z,1002.6
2018-06-27T06:32:57.643Z,1002.6
2018-06-27T06:33:18.610Z,1002.6
2018-06-27T06:33:39.293Z,1002.6
2018-06-27T06:34:00.122Z,1002.6
2018-06-27T06:34:20.997Z,1002.6
2018-06-27T06:34:41.624Z,1002.6
2018-06-27T06:35:02.537Z,1002.6
2018-06-27T06:35:23.157Z,1002.6
2018-06-27T06:35:43.562Z,1002.6
2018-06-27T06:36:04.223Z,1002.6
2018-06-27T06:36:24.863Z,1002.6
2018-06-27T06:36:45.620Z,1002.6
2018-06-27T06:37:06.360Z,1002.6
2018-06-27T06:37:27.358Z,1002.6
2018-06-27T06:37:48.162Z,1002.6
2018-06-27T06:38:09.097Z,1002.6
2018-06-27T06:38:29.751Z,1002.7
2018-06-27T06:38:50.376Z,1002.7
2018-06-27T06:39:11.053Z,1002.7
2018-06-27T06:39:31.739Z,1002.7
2018-06-27T06:39:52.413Z,1002.7
2018-06-27T06:40:13.225Z,1002.7
2018-06-27T06:40:33.655Z,1002.7
2018-06-27T06:40:54.264Z,1002.7
2018-06-27T06:41:14.814Z,1002.7
2018-06-27T06:41:35.400Z,1002.7
2018-06-27T06:41:56.249Z,1002.7
2018-06-27T06:42:16.720Z,1002.6
2018-06-27T06:42:37.298Z,1002.7
2018-06-27T06:42:57.989Z,1002.7
2018-06-27T06:43:19.514Z,1002.7
2018-06-27T06:43:40.174Z,1002.7
2018-06-27T06:44:01.057Z,1002.7
2018-06-27T06:44:21.689Z,1002.7
2018-06-27T06:44:42.196Z,1002.7
2018-06-27T06:45:02.689Z,1002.7
2018-06-27T06:45:23.205Z,1002.7
2018-06-27T06:45:43.939Z,1002.7
2018-06-27T06:46:04.571Z,1002.6
2018-06-27T06:46:25.488Z,1002.7
2018-06-27T06:46:45.822Z,1002.6
2018-06-27T06:47:06.449Z,1002.6
2018-06-27T06:47:27.049Z,1002.7
2018-06-27T06:47:47.565Z,1002.7
2018-06-27T06:48:08.204Z,1002.7
2018-06-27T06:48:29.209Z,1002.7
2018-06-27T06:48:49.694Z,1002.7
2018-06-27T06:49:10.314Z,1002.7
2018-06-27T06:49:30.872Z,1002.7
2018-06-27T06:49:51.724Z,1002.7
2018-06-27T06:50:12.362Z,1002.7
2018-06-27T06:50:32.884Z,1002.7
2018-06-27T06:50:53.401Z,1002.7
2018-06-27T06:51:14.079Z,1002.7
2018-06-27T06:51:34.883Z,1002.7
2018-06-27T06:51:55.642Z,1002.7
2018-06-27T06:52:16.351Z,1002.8
2018-06-27T06:52:38.004Z,1002.7
2018-06-27T06:52:58.563Z,1002.8
2018-06-27T06:53:19.138Z,1002.8
2018-06-27T06:53:39.907Z,1002.8
2018-06-27T06:54:01.092Z,1002.8
2018-06-27T06:54:22.270Z,1002.8
2018-06-27T06:54:42.750Z,1002.8
2018-06-27T06:55:03.156Z,1002.7
2018-06-27T06:55:23.714Z,1002.8
2018-06-27T06:55:45.787Z,1002.8
2018-06-27T06:56:06.548Z,1002.8
2018-06-27T06:56:27.028Z,1002.8
2018-06-27T06:56:47.577Z,1002.8
2018-06-27T06:57:08.441Z,1002.8
2018-06-27T06:57:29.058Z,1002.8
2018-06-27T06:57:49.726Z,1002.8
2018-06-27T06:58:10.503Z,1002.9
2018-06-27T06:58:33.407Z,1002.8
2018-06-27T06:58:54.031Z,1002.8
2018-06-27T06:59:14.734Z,1002.8
2018-06-27T06:59:35.134Z,1002.9
2018-06-27T06:59:56.048Z,1002.8
2018-06-27T07:00:16.765Z,1002.8
2018-06-27T07:00:37.812Z,1002.8
2018-06-27T07:00:58.591Z,1002.9
2018-06-27T07:01:19.496Z,1002.8
2018-06-27T07:01:40.257Z,1002.8
2018-06-27T07:02:00.983Z,1002.8
2018-06-27T07:02:21.867Z,1002.9
2018-06-27T07:02:42.345Z,1002.9
2018-06-27T07:03:03.226Z,1002.8
2018-06-27T07:03:23.712Z,1002.8
2018-06-27T07:03:44.290Z,1002.8
2018-06-27T07:04:04.786Z,1002.8
2018-06-27T07:04:25.512Z,1002.8
2018-06-27T07:04:46.063Z,1002.9
2018-06-27T07:05:06.784Z,1002.9
2018-06-27T07:05:27.206Z,1002.8
2018-06-27T07:05:47.734Z,1002.8
2018-06-27T07:06:08.341Z,1002.8
2018-06-27T07:06:28.997Z,1002.8
2018-06-27T07:06:49.593Z,1002.8
2018-06-27T07:07:10.774Z,1002.9
2018-06-27T07:07:31.292Z,1002.9
2018-06-27T07:07:51.507Z,1002.8
2018-06-27T07:08:12.103Z,1002.8
2018-06-27T07:08:33.053Z,1002.9
2018-06-27T07:08:53.718Z,1002.8
2018-06-27T07:09:14.581Z,1002.8
2018-06-27T07:09:35.411Z,1002.8
2018-06-27T07:09:56.141Z,1002.8
2018-06-27T07:10:16.915Z,1002.9
2018-06-27T07:10:37.782Z,1002.8
2018-06-27T07:10:58.877Z,1002.8
2018-06-27T07:11:20.113Z,1002.8
2018-06-27T07:11:40.525Z,1002.9
2018-06-27T07:12:01.142Z,1002.8
2018-06-27T07:12:21.920Z,1002.8
2018-06-27T07:12:42.614Z,1002.8
2018-06-27T07:13:03.112Z,1002.8
2018-06-27T07:13:23.595Z,1002.8
2018-06-27T07:13:44.064Z,1002.8
2018-06-27T07:14:04.824Z,1002.8
2018-06-27T07:14:25.143Z,1002.8
2018-06-27T07:14:45.902Z,1002.8
2018-06-27T07:15:06.370Z,1002.8
2018-06-27T07:15:28.033Z,1002.8
2018-06-27T07:15:48.581Z,1002.8
2018-06-27T07:16:09.369Z,1002.8
2018-06-27T07:16:30.250Z,1002.8
2018-06-27T07:16:50.692Z,1002.8
2018-06-27T07:17:11.481Z,1002.8
2018-06-27T07:17:32.012Z,1002.8
2018-06-27T07:17:52.671Z,1002.8
2018-06-27T07:18:13.009Z,1002.8
2018-06-27T07:18:33.628Z,1002.8
2018-06-27T07:18:54.166Z,1002.8
2018-06-27T07:19:14.797Z,1002.8
2018-06-27T07:19:35.232Z,1002.8
2018-06-27T07:19:55.736Z,1002.8
2018-06-27T07:20:16.876Z,1002.8
2018-06-27T07:20:37.432Z,1002.8
2018-06-27T07:20:58.218Z,1002.8
2018-06-27T07:21:18.804Z,1002.8
2018-06-27T07:21:39.418Z,1002.8
2018-06-27T07:21:59.925Z,1002.8
2018-06-27T07:22:20.360Z,1002.8
2018-06-27T07:22:41.310Z,1002.8
2018-06-27T07:23:02.142Z,1002.8
2018-06-27T07:23:22.717Z,1002.8
2018-06-27T07:23:43.459Z,1002.8
2018-06-27T07:24:04.394Z,1002.8
2018-06-27T07:24:25.393Z,1002.9
2018-06-27T07:24:45.890Z,1002.9
2018-06-27T07:25:06.434Z,1002.9
2018-06-27T07:25:27.594Z,1002.9
2018-06-27T07:25:48.270Z,1002.8
2018-06-27T07:26:08.905Z,1002.9
2018-06-27T07:26:29.705Z,1002.9
2018-06-27T07:26:50.490Z,1002.8
2018-06-27T07:27:11.202Z,1002.9
2018-06-27T07:27:31.845Z,1002.9
2018-06-27T07:27:52.370Z,1002.8
2018-06-27T07:28:13.035Z,1002.9
2018-06-27T07:28:33.852Z,1002.8
2018-06-27T07:28:54.734Z,1002.8
2018-06-27T07:29:15.229Z,1002.8
2018-06-27T07:29:35.692Z,1002.8
2018-06-27T07:29:56.262Z,1002.8
2018-06-27T07:30:16.663Z,1002.8
2018-06-27T07:30:37.421Z,1002.8
2018-06-27T07:30:58.224Z,1002.8
2018-06-27T07:31:19.912Z,1002.8
2018-06-27T07:31:40.646Z,1002.8
2018-06-27T07:32:01.381Z,1002.8
2018-06-27T07:32:22.357Z,1002.8
2018-06-27T07:32:43.135Z,1002.8
2018-06-27T07:33:03.828Z,1002.8
2018-06-27T07:33:24.446Z,1002.8
2018-06-27T07:33:45.142Z,1002.9
2018-06-27T07:34:06.003Z,1002.8
2018-06-27T07:34:26.825Z,1002.9
2018-06-27T07:34:47.593Z,1002.9
2018-06-27T07:35:08.167Z,1002.9
2018-06-27T07:35:28.823Z,1002.9
2018-06-27T07:35:49.722Z,1002.9
2018-06-27T07:36:10.490Z,1002.8
2018-06-27T07:36:31.463Z,1002.9
2018-06-27T07:36:53.642Z,1002.9
2018-06-27T07:37:14.205Z,1002.9
2018-06-27T07:37:35.009Z,1002.9
2018-06-27T07:37:55.697Z,1002.9
2018-06-27T07:38:17.290Z,1002.9
2018-06-27T07:38:37.926Z,1002.9
2018-06-27T07:38:58.902Z,1002.9
2018-06-27T07:39:19.960Z,1003
2018-06-27T07:39:40.649Z,1002.9
2018-06-27T07:40:01.489Z,1003
2018-06-27T07:40:22.320Z,1002.9
2018-06-27T07:40:43.145Z,1003
2018-06-27T07:41:04.291Z,1003
2018-06-27T07:41:24.876Z,1003
2018-06-27T07:41:45.478Z,1003
2018-06-27T07:42:06.012Z,1003
2018-06-27T07:42:26.644Z,1003
2018-06-27T07:42:48.540Z,1003
2018-06-27T07:43:09.345Z,1002.9
2018-06-27T07:43:30.133Z,1002.9
2018-06-27T07:43:50.653Z,1002.9
2018-06-27T07:44:11.454Z,1002.9
2018-06-27T07:44:32.400Z,1003
2018-06-27T07:44:53.277Z,1003
2018-06-27T07:45:14.219Z,1003
2018-06-27T07:45:35.045Z,1002.9
2018-06-27T07:45:56.228Z,1002.9
2018-06-27T07:46:17.130Z,1002.9
2018-06-27T07:46:38.495Z,1002.9
2018-06-27T07:46:59.423Z,1002.9
2018-06-27T07:47:20.388Z,1003
2018-06-27T07:47:40.791Z,1002.9
2018-06-27T07:48:02.172Z,1002.9
2018-06-27T07:48:22.665Z,1002.9
2018-06-27T07:48:43.427Z,1003
2018-06-27T07:49:04.213Z,1002.9
2018-06-27T07:49:24.956Z,1003
2018-06-27T07:49:45.785Z,1002.9
2018-06-27T07:50:06.389Z,1003
2018-06-27T07:50:27.081Z,1003
2018-06-27T07:50:47.735Z,1003
2018-06-27T07:51:08.520Z,1002.9
2018-06-27T07:51:29.033Z,1002.9
2018-06-27T07:51:49.578Z,1003
2018-06-27T07:52:10.462Z,1002.9
2018-06-27T07:52:31.350Z,1003
2018-06-27T07:52:52.165Z,1002.9
2018-06-27T07:53:12.790Z,1002.9
2018-06-27T07:53:33.163Z,1003
2018-06-27T07:53:53.797Z,1002.9
2018-06-27T07:54:14.236Z,1003
2018-06-27T07:54:34.810Z,1003
2018-06-27T07:54:55.441Z,1003
2018-06-27T07:55:16.796Z,1003
2018-06-27T07:55:37.877Z,1003
2018-06-27T07:55:58.779Z,1003
2018-06-27T07:56:19.766Z,1003
2018-06-27T07:56:40.732Z,1003
2018-06-27T07:57:01.285Z,1003
2018-06-27T07:57:22.616Z,1003.1
2018-06-27T07:57:43.254Z,1003.1
2018-06-27T07:58:04.141Z,1003.1
2018-06-27T07:58:24.855Z,1003
2018-06-27T07:58:45.561Z,1003
2018-06-27T07:59:06.259Z,1003
2018-06-27T07:59:26.788Z,1003.1
2018-06-27T07:59:47.809Z,1003
2018-06-27T08:00:08.650Z,1003.1
2018-06-27T08:00:29.284Z,1003.1
2018-06-27T08:00:49.981Z,1003.1
2018-06-27T08:01:10.765Z,1003.1
2018-06-27T08:01:31.534Z,1003.1
2018-06-27T08:01:52.356Z,1003
2018-06-27T08:02:13.022Z,1003.1
2018-06-27T08:02:33.571Z,1003
2018-06-27T08:02:54.322Z,1003
2018-06-27T08:03:15.026Z,1003
2018-06-27T08:03:35.922Z,1003.1
2018-06-27T08:03:56.616Z,1003.1
2018-06-27T08:04:17.375Z,1003.1
2018-06-27T08:04:38.340Z,1003
2018-06-27T08:04:59.617Z,1003.1
2018-06-27T08:05:20.293Z,1003
2018-06-27T08:05:41.280Z,1003
2018-06-27T08:06:02.275Z,1003
2018-06-27T08:06:22.733Z,1003
2018-06-27T08:06:43.289Z,1003
2018-06-27T08:07:03.969Z,1003
2018-06-27T08:07:24.846Z,1003
2018-06-27T08:07:45.544Z,1003
2018-06-27T08:08:06.064Z,1003
2018-06-27T08:08:26.689Z,1002.9
2018-06-27T08:08:47.564Z,1002.9
2018-06-27T08:09:08.144Z,1003
2018-06-27T08:09:29.021Z,1003
2018-06-27T08:09:50.017Z,1003
2018-06-27T08:10:10.742Z,1003
2018-06-27T08:10:31.414Z,1003
2018-06-27T08:10:52.180Z,1003
2018-06-27T08:11:12.882Z,1003
2018-06-27T08:11:33.255Z,1003
2018-06-27T08:11:53.726Z,1003
2018-06-27T08:12:14.608Z,1003
2018-06-27T08:12:35.642Z,1003
2018-06-27T08:12:56.383Z,1003
2018-06-27T08:13:17.128Z,1002.9
2018-06-27T08:13:37.952Z,1003
2018-06-27T08:13:58.699Z,1003
2018-06-27T08:14:19.248Z,1003
2018-06-27T08:14:39.818Z,1003
2018-06-27T08:15:00.493Z,1003
2018-06-27T08:15:21.042Z,1002.9
2018-06-27T08:15:41.727Z,1002.9
2018-06-27T08:16:02.011Z,1002.9
2018-06-27T08:16:23.071Z,1002.9
2018-06-27T08:16:43.560Z,1003
2018-06-27T08:17:04.073Z,1003
2018-06-27T08:17:24.568Z,1003
2018-06-27T08:17:45.005Z,1003
2018-06-27T08:18:05.778Z,1003
2018-06-27T08:18:26.114Z,1003
2018-06-27T08:18:47.448Z,1003
2018-06-27T08:19:08.159Z,1002.9
2018-06-27T08:19:28.791Z,1003
2018-06-27T08:19:49.474Z,1003
2018-06-27T08:20:10.255Z,1003
2018-06-27T08:20:31.207Z,1003
2018-06-27T08:20:51.777Z,1003
2018-06-27T08:21:13.477Z,1002.9
2018-06-27T08:21:34.368Z,1002.9
2018-06-27T08:21:55.149Z,1003
2018-06-27T08:22:15.957Z,1003
2018-06-27T08:22:36.464Z,1003
2018-06-27T08:22:58.600Z,1003
2018-06-27T08:23:19.464Z,1003
2018-06-27T08:23:40.109Z,1003
2018-06-27T08:24:00.724Z,1003
2018-06-27T08:24:21.371Z,1003
2018-06-27T08:24:42.068Z,1002.9
2018-06-27T08:25:02.766Z,1003
2018-06-27T08:25:23.614Z,1002.9
2018-06-27T08:25:44.371Z,1002.9
2018-06-27T08:26:04.962Z,1003
2018-06-27T08:26:25.743Z,1003
2018-06-27T08:26:47.040Z,1003
2018-06-27T08:27:07.684Z,1003
2018-06-27T08:27:28.311Z,1003
2018-06-27T08:27:48.943Z,1003
2018-06-27T08:28:09.762Z,1003
2018-06-27T08:28:30.512Z,1003
2018-06-27T08:28:50.955Z,1003
2018-06-27T08:29:11.495Z,1003
2018-06-27T08:29:32.612Z,1003
2018-06-27T08:29:53.422Z,1003
2018-06-27T08:30:14.324Z,1003
2018-06-27T08:30:35.191Z,1003
2018-06-27T08:30:55.820Z,1003
2018-06-27T08:31:16.360Z,1003
2018-06-27T08:31:37.132Z,1003
2018-06-27T08:31:58.033Z,1003.1
2018-06-27T08:32:18.693Z,1003
2018-06-27T08:32:39.474Z,1003
2018-06-27T08:32:59.986Z,1003.1
2018-06-27T08:33:20.771Z,1003.1
2018-06-27T08:33:41.863Z,1003.1
2018-06-27T08:34:02.487Z,1003.1
2018-06-27T08:34:23.457Z,1003.1
2018-06-27T08:34:44.050Z,1003.1
2018-06-27T08:35:04.918Z,1003.1
2018-06-27T08:35:25.474Z,1003.1
2018-06-27T08:35:46.367Z,1003.1
2018-06-27T08:36:07.589Z,1003.1
2018-06-27T08:36:28.376Z,1003.1
2018-06-27T08:36:49.340Z,1003.1
2018-06-27T08:37:10.322Z,1003.2
2018-06-27T08:37:31.260Z,1003.1
2018-06-27T08:37:51.894Z,1003
2018-06-27T08:38:12.925Z,1003.1
2018-06-27T08:38:33.549Z,1003
2018-06-27T08:38:54.203Z,1003.1
2018-06-27T08:39:14.961Z,1003.1
2018-06-27T08:39:35.650Z,1003.1
2018-06-27T08:39:56.248Z,1003.1
2018-06-27T08:40:16.904Z,1003.1
2018-06-27T08:40:37.551Z,1003.1
2018-06-27T08:40:58.204Z,1003.1
2018-06-27T08:41:18.888Z,1003.1
2018-06-27T08:41:39.456Z,1003.2
2018-06-27T08:42:00.080Z,1003.2
2018-06-27T08:42:20.693Z,1003.1
2018-06-27T08:42:41.407Z,1003.1
2018-06-27T08:43:01.954Z,1003
2018-06-27T08:43:22.809Z,1003
2018-06-27T08:43:43.625Z,1003
2018-06-27T08:44:04.228Z,1003
2018-06-27T08:44:24.911Z,1003
2018-06-27T08:44:46.166Z,1003
2018-06-27T08:45:06.509Z,1003
2018-06-27T08:45:27.890Z,1003
2018-06-27T08:45:48.368Z,1002.9
2018-06-27T08:46:09.130Z,1003
2018-06-27T08:46:29.755Z,1003
2018-06-27T08:46:50.582Z,1003
2018-06-27T08:47:11.919Z,1003.1
2018-06-27T08:47:32.512Z,1003.1
2018-06-27T08:47:53.118Z,1003.1
2018-06-27T08:48:13.650Z,1003.1
2018-06-27T08:48:34.087Z,1003.1
2018-06-27T08:48:54.710Z,1003
2018-06-27T08:49:15.717Z,1003.1
2018-06-27T08:49:36.586Z,1003.1
2018-06-27T08:49:57.106Z,1003.1
2018-06-27T08:50:18.139Z,1003.1
2018-06-27T08:50:38.972Z,1003
2018-06-27T08:50:59.868Z,1003
2018-06-27T08:51:21.533Z,1003
2018-06-27T08:51:42.149Z,1003
2018-06-27T08:52:02.780Z,1003
2018-06-27T08:52:24.236Z,1003
2018-06-27T08:52:44.828Z,1002.9
2018-06-27T08:53:05.642Z,1003
2018-06-27T08:53:26.440Z,1002.9
2018-06-27T08:53:47.182Z,1003
2018-06-27T08:54:07.819Z,1003
2018-06-27T08:54:28.623Z,1003.1
2018-06-27T08:54:50.066Z,1003
2018-06-27T08:55:10.562Z,1003
2018-06-27T08:55:31.526Z,1003
2018-06-27T08:55:52.343Z,1003
2018-06-27T08:56:12.874Z,1003
2018-06-27T08:56:33.583Z,1003.1
2018-06-27T08:56:54.431Z,1003.1
2018-06-27T08:57:15.129Z,1003.1
2018-06-27T08:57:35.884Z,1003.1
2018-06-27T08:57:56.541Z,1003.1
2018-06-27T08:58:17.625Z,1003.1
2018-06-27T08:58:38.026Z,1003.2
2018-06-27T08:58:58.725Z,1003.1
2018-06-27T08:59:19.270Z,1003.2
2018-06-27T08:59:39.981Z,1003.1
2018-06-27T09:00:00.473Z,1003.1
2018-06-27T09:00:21.338Z,1003.1
2018-06-27T09:00:42.259Z,1003.1
2018-06-27T09:01:02.868Z,1003.2
2018-06-27T09:01:23.559Z,1003.1
2018-06-27T09:01:44.136Z,1003.1
2018-06-27T09:02:04.820Z,1003.1
2018-06-27T09:02:25.622Z,1003.1
2018-06-27T09:02:46.571Z,1003.1
2018-06-27T09:03:07.423Z,1003.2
2018-06-27T09:03:29.017Z,1003.2
2018-06-27T09:03:49.599Z,1003.2
2018-06-27T09:04:10.092Z,1003.1
2018-06-27T09:04:30.431Z,1003.2
2018-06-27T09:04:50.924Z,1003.2
2018-06-27T09:05:11.560Z,1003.1
2018-06-27T09:05:31.964Z,1003.1
2018-06-27T09:05:52.530Z,1003.1
2018-06-27T09:06:13.026Z,1003.1
2018-06-27T09:06:33.557Z,1003.1
2018-06-27T09:06:54.209Z,1003.2
2018-06-27T09:07:15.535Z,1003.2
2018-06-27T09:07:36.250Z,1003.2
2018-06-27T09:07:57.516Z,1003.2
2018-06-27T09:08:17.932Z,1003.2
2018-06-27T09:08:38.513Z,1003.2
2018-06-27T09:08:59.255Z,1003.3
2018-06-27T09:09:19.956Z,1003.3
2018-06-27T09:09:40.876Z,1003.3
2018-06-27T09:10:01.502Z,1003.3
2018-06-27T09:10:22.046Z,1003.2
2018-06-27T09:10:42.462Z,1003.3
2018-06-27T09:11:03.524Z,1003.3
2018-06-27T09:11:23.978Z,1003.2
2018-06-27T09:11:44.603Z,1003.2
2018-06-27T09:12:05.009Z,1003.2
2018-06-27T09:12:25.386Z,1003.4
2018-06-27T09:12:45.876Z,1003.3
2018-06-27T09:13:06.689Z,1003.3
2018-06-27T09:13:27.107Z,1003.3
2018-06-27T09:13:47.425Z,1003.3
2018-06-27T09:14:07.831Z,1003.3
2018-06-27T09:14:28.436Z,1003.3
2018-06-27T09:14:48.867Z,1003.3
2018-06-27T09:15:09.893Z,1003.2
2018-06-27T09:15:30.583Z,1003.2
2018-06-27T09:15:51.279Z,1003.2
2018-06-27T09:16:11.898Z,1003.3
2018-06-27T09:16:32.514Z,1003.2
2018-06-27T09:16:53.190Z,1003.2
2018-06-27T09:17:13.648Z,1003.2
2018-06-27T09:17:34.113Z,1003.3
2018-06-27T09:17:54.678Z,1003.3
2018-06-27T09:18:15.098Z,1003.3
2018-06-27T09:18:35.854Z,1003.3
2018-06-27T09:18:56.353Z,1003.3
2018-06-27T09:19:16.881Z,1003.3
2018-06-27T09:19:37.415Z,1003.3
2018-06-27T09:19:57.920Z,1003.2
2018-06-27T09:20:18.751Z,1003.2
2018-06-27T09:20:40.967Z,1003.2
2018-06-27T09:21:01.767Z,1003.3
2018-06-27T09:21:22.512Z,1003.3
2018-06-27T09:21:43.492Z,1003.3
2018-06-27T09:22:04.202Z,1003.3
2018-06-27T09:22:25.002Z,1003.3
2018-06-27T09:22:45.376Z,1003.2
2018-06-27T09:23:05.807Z,1003.2
2018-06-27T09:23:26.388Z,1003.2
2018-06-27T09:23:46.900Z,1003.3
2018-06-27T09:24:07.312Z,1003.2
2018-06-27T09:24:27.656Z,1003.3
2018-06-27T09:24:48.105Z,1003.3
2018-06-27T09:25:09.578Z,1003.3
2018-06-27T09:25:29.976Z,1003.3
2018-06-27T09:25:50.390Z,1003.3
2018-06-27T09:26:11.379Z,1003.3
2018-06-27T09:26:32.091Z,1003.3
2018-06-27T09:26:52.797Z,1003.3
2018-06-27T09:27:13.262Z,1003.3
2018-06-27T09:27:33.569Z,1003.3
2018-06-27T09:27:53.963Z,1003.3
2018-06-27T09:28:14.646Z,1003.3
2018-06-27T09:28:35.139Z,1003.4
2018-06-27T09:28:55.802Z,1003.4
2018-06-27T09:29:16.507Z,1003.3
2018-06-27T09:29:37.444Z,1003.3
2018-06-27T09:29:58.593Z,1003.3
2018-06-27T09:30:19.365Z,1003.3
2018-06-27T09:30:40.006Z,1003.3
2018-06-27T09:31:00.474Z,1003.3
2018-06-27T09:31:20.939Z,1003.3
2018-06-27T09:31:42.035Z,1003.4
2018-06-27T09:32:02.489Z,1003.3
2018-06-27T09:32:23.060Z,1003.4
2018-06-27T09:32:43.461Z,1003.4
2018-06-27T09:33:03.843Z,1003.4
2018-06-27T09:33:25.145Z,1003.4
2018-06-27T09:33:45.751Z,1003.4
2018-06-27T09:34:06.392Z,1003.4
2018-06-27T09:34:26.897Z,1003.4
2018-06-27T09:34:47.499Z,1003.4
2018-06-27T09:35:08.678Z,1003.3
2018-06-27T09:35:30.063Z,1003.3
2018-06-27T09:35:50.656Z,1003.3
2018-06-27T09:36:11.282Z,1003.3
2018-06-27T09:36:32.412Z,1003.3
2018-06-27T09:36:53.163Z,1003.3
2018-06-27T09:37:13.929Z,1003.3
2018-06-27T09:37:34.659Z,1003.3
2018-06-27T09:37:55.235Z,1003.3
2018-06-27T09:38:16.088Z,1003.3
2018-06-27T09:38:36.667Z,1003.3
2018-06-27T09:38:57.249Z,1003.3
2018-06-27T09:39:17.742Z,1003.3
2018-06-27T09:39:38.471Z,1003.3
2018-06-27T09:39:58.969Z,1003.2
2018-06-27T09:40:19.614Z,1003.2
2018-06-27T09:40:40.145Z,1003.2
2018-06-27T09:41:00.551Z,1003.2
2018-06-27T09:41:21.111Z,1003.2
2018-06-27T09:41:41.578Z,1003.2
2018-06-27T09:42:02.162Z,1003.2
2018-06-27T09:42:23.028Z,1003.2
2018-06-27T09:42:43.728Z,1003.2
2018-06-27T09:43:04.345Z,1003.2
2018-06-27T09:43:25.138Z,1003.2
2018-06-27T09:43:45.724Z,1003.3
2018-06-27T09:44:06.137Z,1003.2
2018-06-27T09:44:26.884Z,1003.3
2018-06-27T09:44:47.343Z,1003.3
2018-06-27T09:45:08.077Z,1003.4
2018-06-27T09:45:28.450Z,1003.2
2018-06-27T09:45:49.372Z,1003.3
2018-06-27T09:46:10.065Z,1003.3
2018-06-27T09:46:31.630Z,1003.3
2018-06-27T09:46:52.482Z,1003.2
2018-06-27T09:47:12.947Z,1003.3
2018-06-27T09:47:33.702Z,1003.4
2018-06-27T09:47:54.414Z,1003.3
2018-06-27T09:48:15.210Z,1003.3
2018-06-27T09:48:35.829Z,1003.3
2018-06-27T09:48:56.440Z,1003.3
2018-06-27T09:49:17.252Z,1003.2
2018-06-27T09:49:37.736Z,1003.3
2018-06-27T09:49:58.340Z,1003.2
2018-06-27T09:50:19.202Z,1003.2
2018-06-27T09:50:39.800Z,1003.2
2018-06-27T09:51:00.335Z,1003.1
2018-06-27T09:51:21.025Z,1003.2
2018-06-27T09:51:41.602Z,1003.2
2018-06-27T09:52:03.258Z,1003.2
2018-06-27T09:52:24.186Z,1003.2
2018-06-27T09:52:44.854Z,1003.2
2018-06-27T09:53:05.347Z,1003.2
2018-06-27T09:53:25.997Z,1003.2
2018-06-27T09:53:46.623Z,1003.2
2018-06-27T09:54:07.477Z,1003.2
2018-06-27T09:54:28.619Z,1003.2
2018-06-27T09:54:50.134Z,1003.2
2018-06-27T09:55:10.739Z,1003.2
2018-06-27T09:55:31.224Z,1003.2
2018-06-27T09:55:51.848Z,1003.2
2018-06-27T09:56:12.258Z,1003.2
2018-06-27T09:56:32.864Z,1003.2
2018-06-27T09:56:53.485Z,1003.2
2018-06-27T09:57:14.138Z,1003.2
2018-06-27T09:57:34.993Z,1003.2
2018-06-27T09:57:55.795Z,1003.2
2018-06-27T09:58:16.324Z,1003.2
2018-06-27T09:58:36.701Z,1003.2
2018-06-27T09:58:57.118Z,1003.1
2018-06-27T09:59:17.721Z,1003.2
2018-06-27T09:59:38.091Z,1003.2
2018-06-27T09:59:58.633Z,1003.1
2018-06-27T10:00:18.966Z,1003.1
2018-06-27T10:00:39.584Z,1003.1
2018-06-27T10:00:59.928Z,1003.1
2018-06-27T10:01:20.436Z,1003.1
2018-06-27T10:01:40.928Z,1003.1
2018-06-27T10:02:01.659Z,1003.1
2018-06-27T10:02:22.273Z,1003.1
2018-06-27T10:02:42.908Z,1003.1
2018-06-27T10:03:03.684Z,1003.1
2018-06-27T10:03:24.190Z,1003.1
2018-06-27T10:03:44.884Z,1003.1
2018-06-27T10:04:05.591Z,1003
2018-06-27T10:04:26.377Z,1003
2018-06-27T10:04:47.255Z,1003
2018-06-27T10:05:08.222Z,1003
2018-06-27T10:05:29.019Z,1003
2018-06-27T10:05:49.646Z,1002.9
2018-06-27T10:06:10.279Z,1002.9
2018-06-27T10:06:31.591Z,1002.9
2018-06-27T10:06:52.730Z,1002.9
2018-06-27T10:07:13.900Z,1002.9
2018-06-27T10:07:34.559Z,1003
2018-06-27T10:07:55.207Z,1003
2018-06-27T10:08:15.693Z,1003
2018-06-27T10:08:36.545Z,1003
2018-06-27T10:08:57.216Z,1003
2018-06-27T10:09:17.961Z,1003
2018-06-27T10:09:38.535Z,1003
2018-06-27T10:09:59.001Z,1003
2018-06-27T10:10:19.888Z,1003.1